ADDS METAR Data INFO
IDs: Format: Raw Decoded Include TAF

Data at: 0105 UTC 24 Jun 2018

PAYA 240053Z AUTO 10SM SCT022 SCT027 OVC060 13/07 A3006 RMK AO2 SLP178 T01330072 TSNO
PAYA 232353Z AUTO VRB03KT 10SM BKN021 OVC035 13/08 A3006 RMK AO2 SLP180 60000 T01280083 10133 20111 58010 TSNO
PAYA 232253Z AUTO 02005KT 10SM OVC042 13/08 A3008 RMK AO2 SLP184 T01280083 TSNO
PAYA 232153Z AUTO 02006KT 10SM FEW028 OVC042 12/08 A3009 RMK AO2 RAB23E32 SLP189 P0000 T01220083 TSNO
PAYA 232053Z AUTO 24005KT 10SM FEW017 BKN037 OVC055 12/08 A3009 RMK AO2 SLP190 T01220083 56003 TSNO
PAYA 232036Z AUTO VRB03KT 10SM SCT029 BKN046 OVC055 12/08 A3009 RMK AO2 T01220078 TSNO
PAYA 232013Z AUTO 25003KT 10SM SCT011 BKN020 OVC030 12/09 A3010 RMK AO2 T01220089 TSNO
PAYA 231953Z AUTO 00000KT 6SM HZ BKN013 BKN035 OVC045 12/09 A3010 RMK AO2 SLP192 T01170089 TSNO
PAYA 231949Z AUTO 17003KT 6SM HZ BKN014 BKN034 OVC045 12/09 A3010 RMK AO2 TSNO
PAYA 231853Z AUTO 02003KT 10SM BKN040 OVC048 12/08 A3009 RMK AO2 SLP190 T01170083 TSNO
PAYA 231753Z AUTO 00000KT 10SM OVC046 12/09 A3010 RMK AO2 RAE1656 SLP193 P0000 60000 T01220089 10122 20100 58007 TSNO
PAYA 231653Z AUTO 18003KT 10SM -RA FEW012 OVC032 11/09 A3011 RMK AO2 RAB41 SLP196 P0000 T01110089 TSNO
PAYA 231635Z AUTO 18004KT 10SM FEW012 BKN031 OVC038 11/09 A3012 RMK AO2 T01110089 TSNO
PAYA 231628Z AUTO 18005KT 10SM FEW012 BKN017 OVC038 12/09 A3012 RMK AO2 T01170089 TSNO
PAYA 231553Z AUTO 23003KT 10SM BKN040 OVC050 12/09 A3012 RMK AO2 SLP199 T01170089 TSNO
PAYA 231453Z AUTO 00000KT 10SM BKN045 OVC050 11/09 A3012 RMK AO2 SLP200 T01060089 56008 TSNO
PAYA 231353Z AUTO 00000KT 10SM OVC041 10/09 A3013 RMK AO2 SLP202 T01000089 TSNO
PAYA 231253Z AUTO 00000KT 10SM OVC039 10/09 A3014 RMK AO2 SLP205 T01000089 TSNO
PAYA 231153Z AUTO 00000KT 10SM BKN032 OVC038 10/09 A3014 RMK AO2 RAE08 SLP207 P0000 60000 70003 T01000089 10117 20100 56004 TSNO
PAYA 231148Z AUTO 00000KT 10SM BKN032 OVC038 10/09 A3014 RMK AO2 RAE08 P0000 TSNO
PAYA 231053Z AUTO 00000KT 3SM -RA BR FEW016 FEW022 OVC029 10/09 A3015 RMK AO2 RAB33 SLP211 P0000 T01000089 TSNO
PAYA 231041Z AUTO 00000KT 3SM -RA BR BKN028 OVC048 10/09 A3015 RMK AO2 RAB33 P0000 T01000089 TSNO
PAYA 230953Z AUTO 00000KT 10SM OVC041 11/09 A3016 RMK AO2 SLP211 T01060089 TSNO
PAYA 230853Z AUTO 28003KT 10SM OVC041 11/08 A3016 RMK AO2 SLP213 T01110083 401440106 56004 TSNO
PAYA 230753Z AUTO 23003KT 10SM OVC040 11/08 A3016 RMK AO2 SLP214 T01110083 TSNO
PAYA 230653Z AUTO 28003KT 10SM OVC031 11/08 A3016 RMK AO2 SLP215 T01110083 TSNO
PAYA 230553Z AUTO 28004KT 10SM FEW019 OVC041 12/08 A3017 RMK AO2 SLP217 T01170083 10133 20117 56004 TSNO
PAYA 230511Z AUTO 28004KT 10SM FEW017 SCT028 OVC040 12/08 A3017 RMK AO2 T01170083 TSNO
PAYA 230453Z AUTO 28007KT 10SM FEW017 OVC026 12/08 A3017 RMK AO2 SLP218 T01170083 TSNO
PAYA 230353Z AUTO 26007KT 10SM SCT016 OVC023 12/08 A3018 RMK AO2 SLP219 T01170083 TSNO
PAYA 230253Z AUTO 26008KT 10SM OVC021 12/08 A3018 RMK AO2 SLP221 T01220083 51001 TSNO
PAYA 230153Z AUTO 28008KT 10SM OVC018 13/08 A3018 RMK AO2 SLP220 T01280083 TSNO
PAYA 230053Z AUTO 24009KT 10SM OVC017 13/09 A3018 RMK AO2 SLP221 T01280089 TSNO
PAYA 222353Z AUTO 28009KT 240V300 10SM BKN020 OVC033 13/08 A3018 RMK AO2 SLP220 T01330083 10144 20122 51005 TSNO
PAYA 222336Z AUTO 27008KT 10SM SCT018 OVC032 13/09 A3018 RMK AO2 T01330089 TSNO
PAYA 222253Z AUTO 27008KT 10SM BKN016 OVC030 13/09 A3018 RMK AO2 SLP219 T01280089 TSNO
PAYA 222227Z AUTO 24012KT 10SM BKN016 OVC041 13/09 A3017 RMK AO2 T01280089 TSNO
PAYA 222153Z AUTO 26012KT 10SM BKN013 BKN018 OVC026 13/09 A3017 RMK AO2 SLP216 T01280094 TSNO
PAYA 222112Z AUTO 26007KT 10SM BKN015 BKN021 OVC041 13/10 A3016 RMK AO2 T01330100 TSNO
PAYA 222053Z AUTO 24008KT 10SM BKN013 BKN018 OVC041 13/10 A3016 RMK AO2 SLP214 T01330100 53007 TSNO
PAYA 222024Z AUTO 24006KT 10SM BKN013 BKN019 OVC070 13/10 A3016 RMK AO2 T01330100 TSNO
PAYA 222013Z AUTO 22006KT 10SM SCT014 BKN018 OVC080 13/10 A3016 RMK AO2 T01330100 TSNO
PAYA 221953Z AUTO 23005KT 10SM BKN014 BKN021 OVC065 13/09 A3015 RMK AO2 SLP211 T01280094 TSNO
PAYA 221909Z AUTO 22006KT 10SM BKN012 BKN020 OVC045 13/10 A3015 RMK AO2 T01280100 TSNO
PAYA 221853Z AUTO 23006KT 10SM SCT012 BKN019 OVC045 12/09 A3015 RMK AO2 SLP209 T01220094 TSNO
PAYA 221839Z AUTO 24005KT 10SM SCT012 BKN021 OVC026 12/10 A3015 RMK AO2 T01220100 TSNO
PAYA 221817Z AUTO VRB03KT 10SM BKN012 BKN028 OVC034 12/10 A3014 RMK AO2 T01220100 TSNO
PAYA 221810Z AUTO 22004KT 10SM BKN009 BKN014 OVC047 12/09 A3014 RMK AO2 CIG 009V012 T01220094 TSNO
PAYA 221753Z AUTO VRB04KT 10SM OVC012 12/09 A3014 RMK AO2 SLP207 60003 T01220094 10122 20106 51009 TSNO
PAYA 221723Z AUTO 20004KT 10SM BKN011 BKN014 OVC042 12/09 A3014 RMK AO2 T01170094 TSNO
PAYA 221653Z AUTO 23004KT 10SM FEW007 BKN032 OVC047 12/09 A3014 RMK AO2 SLP206 P0001 T01170094 TSNO
PAYA 221645Z AUTO 26003KT 10SM OVC030 12/11 A3014 RMK AO2 P0001 T01170106 TSNO
PAYA 221627Z AUTO 15003KT 8SM FEW005 SCT011 OVC029 11/10 A3014 RMK AO2 P0001 T01110100 TSNO
PAYA 221619Z AUTO 17005KT 5SM BR SCT005 BKN010 OVC027 11/10 A3014 RMK AO2 P0001 T01060100 TSNO
PAYA 221612Z AUTO 20004KT 2SM BR BKN005 BKN011 OVC023 11/10 A3013 RMK AO2 P0001 T01060100 TSNO
PAYA 221604Z AUTO 20006KT 3SM R11/5500VP6000FT BR BKN005 OVC011 11/10 A3013 RMK AO2 T01060100 TSNO
PAYA 221553Z AUTO 17005KT 2 1/2SM R11/6000VP6000FT BR BKN008 OVC019 11/10 A3013 RMK AO2 RAB36E46 SLP202 P0000 T01110100 TSNO
PAYA 221545Z AUTO VRB03KT 3SM -RA BR BKN006 OVC019 11/10 A3013 RMK AO2 RAB36 P0000 T01110100 TSNO
PAYA 221538Z AUTO 16003KT 2 1/2SM -RA BR SCT006 BKN011 OVC019 11/10 A3013 RMK AO2 RAB36 P0000 T01110100 TSNO
PAYA 221526Z AUTO 17006KT 4SM BR SCT007 SCT011 OVC019 11/10 A3012 RMK AO2 T01110100 TSNO
PAYA 221522Z AUTO 16005KT 3SM BR BKN007 BKN012 OVC017 11/10 A3012 RMK AO2 T01110100 TSNO
PAYA 221505Z AUTO 17005KT 2 1/2SM BR BKN009 OVC017 11/10 A3012 RMK AO2 CIG 005V012 T01110100 TSNO
PAYA 221453Z AUTO 16006KT 10SM FEW006 BKN010 OVC015 11/10 A3012 RMK AO2 RAE06 CIG 008V012 SLP198 P0000 60002 T01110100 51007 TSNO
PAYA 221433Z AUTO 00000KT 10SM SCT007 BKN011 OVC036 11/10 A3011 RMK AO2 RAE06 P0000 T01110100 TSNO
PAYA 221409Z AUTO VRB03KT 10SM FEW007 BKN018 OVC027 11/10 A3011 RMK AO2 RAE06 P0000 T01060100 TSNO
PAYA 221401Z AUTO 15004KT 2SM -RA BR SCT006 OVC020 11/09 A3011 RMK AO2 P0000 T01060094 TSNO
PAYA 221353Z AUTO 16004KT 1 1/2SM R11/6000VP6000FT -RA BR SCT005 BKN014 OVC020 11/10 A3011 RMK AO2 RAB11E29B34 SLP195 P0002 T01060100 TSNO
PAYA 221342Z AUTO 14006KT 1 3/4SM -RA BR BKN005 BKN010 OVC018 11/10 A3010 RMK AO2 RAB11E29B34 P0001 T01060100 TSNO
PAYA 221333Z AUTO 14004KT 1 3/4SM R11/5500VP6000FT BR SCT005 BKN010 OVC018 11/10 A3010 RMK AO2 RAB11E29 P0001 T01060100 TSNO
PAYA 221326Z AUTO 13005KT 2SM -RA BR BKN007 BKN016 OVC021 11/09 A3010 RMK AO2 RAB11 P0001 T01060094 TSNO
PAYA 221318Z AUTO 13003KT 1 1/4SM -RA BR BKN005 OVC011 11/10 A3010 RMK AO2 RAB11 CIG 004V008 P0001 T01110100 TSNO
PAYA 221312Z AUTO 13003KT 2 1/2SM -RA BR BKN005 OVC011 11/10 A3010 RMK AO2 RAB11 CIG 003V008 P0000 T01110100 TSNO